Tiempo atmosférico en la estación meteorológica de Sotillo De La Adrada, Ávila (630 m.)



Fecha
DESCASC
Temp. máxima en grados centígrados (hora)
DESCASC
Temp. mínima en grados centígrados (hora)
DESCASC
Temp. media en grados centígrados
DESCASC
Racha de viento máxima en m/sg (hora)
DESCASC
Velocidad máxima media en intervalos de 10 minutos(hora)
DESCASC
Precipitaciones diarias en mm
DESCASC
Precipitaciones de 00:00 a 06:00 en mm
DESCASC
Precipitaciones de 06:00 a 12:00 en mm
DESCASC
Precipitaciones de 12:00 a 18:00 en mm
DESCASC
Precipitaciones de 18:00 a 24:00 en mm
DESCASC
27-06-2019 37.8 (17:40) 20.8 (04:40) 29.3 8.89 (17:40) 4.44 (10:00) 0 0 0 0 0
26-06-2019 35.4 (17:20) 18.5 (07:00) 27 9.17 (17:30) 3.61 (12:10) 0.4 0 0.4 0 0
25-06-2019 34.6 (17:10) 15.7 (05:10) 25.1 7.5 (14:00) 3.61 (15:40) 0 0 0 0 0
24-06-2019 31.8 (17:10) 18.5 (07:20) 25.1 8.61 (17:30) 3.89 (19:40) 0 0 0 0 0
23-06-2019 33.2 (16:30) 14.4 (00:00) 23.8 7.78 (14:10) 3.33 (15:10) 0 0 0 0 0
22-06-2019 31.4 (18:30) 17.8 (00:00) 24.6 9.72 (00:20) 4.17 (00:20) 0 0 0 0 0
21-06-2019 29.5 (18:10) 13.1 (00:00) 21.3 11.39 (23:20) 6.11 (23:59) 0 0 0 0 0
20-06-2019 28.8 (17:30) 13 (00:00) 20.9 10 (17:10) 3.61 (19:30) 0 0 0 0 0
19-06-2019 26.9 (17:30) 16.2 (00:00) 21.6 9.72 (17:00) 4.17 (17:00) 0 0 0 0 0
18-06-2019 29.3 (16:40) 13.7 (00:00) 21.5 11.67 (18:10) 4.17 (19:50) 0 0 0 0 0
17-06-2019 31.4 (17:40) 10.9 (00:00) 21.1 8.89 (15:10) 3.89 (14:20) 0 0 0 0 0
16-06-2019 30.2 (16:30) 12.2 (00:00) 21.2 6.67 (14:40) 3.33 (10:20) 0 0 0 0 0

Gráficas

Temp. máximas Temp. mínimas Temp. medias Precipitaciones Rachas de viento máximas Velocidades máximas media en intervalos de 10 minutos

Datos horarios

Fecha y hora oficial Temperatura (ºC) Velocidad del viento (km/h) Dirección del viento Racha (km/h) Dirección de racha Precipitación (mm) Presión (hPa) Tendencia (hPa) Humedad (%)
2019-06-29 03:00:00 30 11 Nordeste 24 Nordeste 0 -- -- 18
2019-06-29 02:00:00 31.1 10 Nordeste 21 Nordeste 0 -- -- 18
2019-06-29 01:00:00 32.6 8 Nordeste 17 Nordeste 0 -- -- 16
2019-06-29 00:00:00 32.6 5 Nordeste 21 Este 0 -- -- 15
2019-06-28 23:00:00 34.2 6 Este 25 Este 0 -- -- 14
2019-06-28 22:00:00 35.8 9 Este 27 Norte 0 -- -- 13
2019-06-28 21:00:00 37.4 11 Este 33 Este 0 -- -- 13
2019-06-28 20:00:00 39.2 15 Este 33 Sudeste 0 -- -- --
2019-06-28 19:00:00 40.6 14 Este 38 Este 0 -- -- --
2019-06-28 18:00:00 41 15 Este 36 Este 0 -- -- 12
2019-06-28 17:00:00 40.8 18 Este 41 Este 0 -- -- 12
2019-06-28 16:00:00 40 14 Este 40 Este 0 -- -- 15
2019-06-28 15:00:00 38.3 15 Sudeste 33 Este 0 -- -- 18
2019-06-28 14:00:00 37.5 11 Nordeste 27 Nordeste 0 -- -- 20
2019-06-28 13:00:00 36 12 Nordeste 30 Nordeste 0 -- -- 23
2019-06-28 12:00:00 33.4 13 Nordeste 28 Nordeste 0 -- -- 26
2019-06-28 11:00:00 31.2 12 Nordeste 31 Este 0 -- -- 33
2019-06-28 10:00:00 28.5 17 Este 33 Este 0 -- -- 37
2019-06-28 09:00:00 26.6 12 Este 28 Este 0 -- -- 42
2019-06-28 08:00:00 24.8 6 Este 16 Sudeste 0 -- -- 45
2019-06-28 07:00:00 24.4 9 Este 18 Este 0 -- -- 47
2019-06-28 06:00:00 24.1 5 Este 19 Este 0 -- -- 48
2019-06-28 05:00:00 23.2 0 Calma 8 Noroeste 0 -- -- 53
2019-06-28 04:00:00 24 4 Norte 12 Nordeste 0 -- -- 52
2019-06-28 03:00:00 23.2 0 Calma 4 Nordeste 0 -- -- 53
2019-06-28 02:00:00 24 0 Calma 4 Nordeste 0 -- -- 49
2019-06-28 01:00:00 25.3 0 Calma 9 Nordeste 0 -- -- 45
2019-06-28 00:00:00 26.7 0 Calma 8 Noroeste 0 -- -- 41
2019-06-27 23:00:00 28.9 3 Nordeste 12 Sudoeste 0 -- -- 37
2019-06-27 22:00:00 31 3 Oeste 18 Sudoeste 0 -- -- 31
2019-06-27 21:00:00 32.8 5 Sudoeste 22 Sudoeste 0 -- -- 28
2019-06-27 20:00:00 34.8 8 Oeste 25 Oeste 0 -- -- 25
2019-06-27 19:00:00 36.9 9 Sudoeste 25 Sur 0 -- -- 23
2019-06-27 18:00:00 37.4 9 Sur 32 Sur 0 -- -- 22
2019-06-27 17:00:00 36.8 11 Sur 27 Sur 0 -- -- 23
2019-06-27 16:00:00 35.5 14 Sur 26 Sur 0 -- -- 25
2019-06-27 15:00:00 35.4 9 Sudeste 24 Sudoeste 0 -- -- 27
2019-06-27 14:00:00 33.7 13 Sudeste 26 Sudeste 0 -- -- 29
2019-06-27 13:00:00 32.2 12 Este 31 Este 0 -- -- 32
2019-06-27 12:00:00 31.4 13 Nordeste 31 Este 0 -- -- 33
2019-06-27 11:00:00 29.6 13 Nordeste 29 Nordeste 0 -- -- 35
2019-06-27 10:00:00 27.6 16 Este 30 Nordeste 0 -- -- 39
2019-06-27 09:00:00 25.3 8 Este 17 Este 0 -- -- 48
2019-06-27 08:00:00 23.3 6 Nordeste 24 Nordeste 0 -- -- 54
2019-06-27 07:00:00 23.1 13 Este 23 Nordeste 0 -- -- 56
2019-06-27 06:00:00 23.3 10 Nordeste 19 Este 0 -- -- 57
2019-06-27 05:00:00 22.3 2 Nordeste 8 Nordeste 0 -- -- 56
2019-06-27 04:00:00 22.4 0 Calma 13 Nordeste 0 -- -- 50
2019-06-27 03:00:00 23.1 2 Norte 6 Norte 0 -- -- 49
2019-06-27 02:00:00 23.6 0 Calma 5 Noroeste 0 -- -- 46
2019-06-27 01:00:00 24.8 2 Norte 4 Norte 0 -- -- 44
2019-06-27 00:00:00 25.3 0 Calma 3 Noroeste 0 -- -- 41
2019-06-26 23:00:00 27.4 2 Sudeste 9 Sudoeste 0 -- -- 36
2019-06-26 22:00:00 30.1 4 Oeste 17 Noroeste 0 -- -- 31
2019-06-26 21:00:00 31.7 4 Oeste 20 Sudoeste 0 -- -- 29
2019-06-26 20:00:00 32.9 8 Oeste 27 Noroeste 0 -- -- 27
2019-06-26 19:00:00 33.7 10 Oeste 26 Sudoeste 0 -- -- 26
2019-06-26 18:00:00 34.3 10 Sur 33 Sudoeste 0 -- -- 26
2019-06-26 17:00:00 34.3 9 Sudoeste 29 Sudoeste 0 -- -- 26
2019-06-26 16:00:00 33.6 13 Sur 28 Sur 0 -- -- 27
2019-06-26 15:00:00 32.9 11 Sur 28 Sur 0 -- -- 28
2019-06-26 14:00:00 31.8 4 Sur 24 Sur 0 -- -- 30
2019-06-26 13:00:00 30.6 9 Sur 25 Sur 0 -- -- 32
2019-06-26 12:00:00 29.6 13 Sudeste 24 Sur -- -- -- 35
2019-06-26 11:00:00 -- 4 Sur 12 Sur 0 -- -- --
2019-06-26 10:00:00 25.6 3 Sur 9 Sur 0 -- -- 41
2019-06-26 09:00:00 23 0 Calma 3 Sudoeste 0 -- -- 51
2019-06-26 08:00:00 19.5 0 Calma -- -- 0 -- -- 59
2019-06-26 07:00:00 18.5 0 Calma 4 Este 0 -- -- 58
2019-06-26 06:00:00 19.6 0 Calma 6 Sur 0 -- -- 53
2019-06-26 05:00:00 21.3 3 Noroeste 8 Norte 0 -- -- 49
2019-06-26 04:00:00 22.5 4 Norte 8 Norte 0 -- -- 45
2019-06-26 03:00:00 22.1 0 Calma 7 Norte 0 -- -- 44
2019-06-26 02:00:00 22 0 Calma 7 Norte 0 -- -- 43
2019-06-26 01:00:00 23.6 3 Norte 8 Nordeste 0 -- -- 39
2019-06-26 00:00:00 24.7 3 Noroeste 7 Nordeste 0 -- -- 35
2019-06-25 23:00:00 26.4 0 Calma 10 Noroeste 0 -- -- 30
2019-06-25 22:00:00 29.8 5 Noroeste 12 Oeste 0 -- -- 24
2019-06-25 21:00:00 31.7 4 Oeste 21 Sudoeste 0 -- -- 20
2019-06-25 20:00:00 33.2 6 Sudoeste 22 Sudoeste 0 -- -- 18
2019-06-25 19:00:00 33.8 7 Sur 24 Oeste 0 -- -- 21
2019-06-25 18:00:00 33.6 4 Sur 26 Sur 0 -- -- 22
2019-06-25 17:00:00 33.5 5 Sudeste 23 Sur 0 -- -- 24
2019-06-25 16:00:00 32.7 10 Sur 26 Sur 0 -- -- 26
2019-06-25 15:00:00 31.4 9 Sur 23 Sur 0 -- -- 30
2019-06-25 14:00:00 30 8 Sudoeste 27 Sur 0 -- -- 33
2019-06-25 13:00:00 28.5 9 Sur 22 Sur 0 -- -- 37
2019-06-25 12:00:00 27.4 3 Sudoeste 17 Sur 0 -- -- 46
2019-06-25 11:00:00 26.2 3 Sudoeste 13 Sudoeste 0 -- -- 51
2019-06-25 10:00:00 23.8 3 Sudeste 8 Sur 0 -- -- 56
2019-06-25 09:00:00 20.3 0 Calma 0 Calma 0 -- -- 68
2019-06-25 08:00:00 17.7 0 Calma 4 Noroeste 0 -- -- 74
2019-06-25 07:00:00 17.1 0 Calma 5 Nordeste 0 -- -- 74
2019-06-25 06:00:00 17 3 Nordeste 6 Nordeste 0 -- -- 74
2019-06-25 05:00:00 16 0 Calma 4 Norte 0 -- -- 74
2019-06-25 04:00:00 16.8 0 Calma 4 Este 0 -- -- 72
2019-06-25 03:00:00 17.4 0 Calma 5 Noroeste 0 -- -- 67
2019-06-25 02:00:00 18.4 0 Calma 12 Sudoeste 0 -- -- 64
2019-06-25 01:00:00 19.7 5 Sudoeste 17 Oeste 0 -- -- 60
2019-06-25 00:00:00 21.6 4 Sudoeste 19 Oeste 0 -- -- 55
2019-06-24 23:00:00 23.5 4 Oeste 21 Oeste 0 -- -- 50
2019-06-24 22:00:00 25.3 10 Noroeste 22 Noroeste 0 -- -- 43
2019-06-24 21:00:00 28.5 6 Sudoeste 27 Sudoeste 0 -- -- 33
2019-06-24 20:00:00 29 9 Sudoeste 31 Sudoeste 0 -- -- 33
2019-06-24 19:00:00 31.3 6 Sudoeste 27 Oeste 0 -- -- 29
2019-06-24 18:00:00 31.1 8 Oeste 31 Sur 0 -- -- 30
2019-06-24 17:00:00 30.5 4 Oeste 21 Oeste 0 -- -- 31
2019-06-24 16:00:00 29.8 4 Sudoeste 22 Sudoeste 0 -- -- 33
2019-06-24 15:00:00 28.9 8 Sudoeste 29 Oeste 0 -- -- 33
2019-06-24 14:00:00 29.5 9 Sudoeste 26 Sudoeste 0 -- -- 31
2019-06-24 13:00:00 30 7 Oeste 21 Sudoeste 0 -- -- 30
2019-06-24 12:00:00 27.7 3 Noroeste 15 Nordeste 0 -- -- 33
2019-06-24 11:00:00 26 3 Nordeste 12 Este 0 -- -- 35
2019-06-24 10:00:00 24.2 2 Sur 6 Sur 0 -- -- 39
2019-06-24 09:00:00 21.5 2 Sur 7 Noroeste 0 -- -- 45
2019-06-24 08:00:00 19.4 3 Noroeste 7 Noroeste 0 -- -- 47
2019-06-24 07:00:00 18.9 0 Calma 8 Nordeste 0 -- -- 46
2019-06-24 06:00:00 19.3 0 Calma 2 Oeste 0 -- -- 45
2019-06-24 05:00:00 20.1 0 Calma 7 Este 0 -- -- 43
2019-06-24 04:00:00 21.7 3 Oeste 8 Oeste 0 -- -- 39
2019-06-24 03:00:00 21.7 0 Calma 5 Noroeste 0 -- -- 39
2019-06-24 02:00:00 21.9 2 Noroeste 9 Nordeste 0 -- -- 39
2019-06-24 01:00:00 21.6 0 Calma 4 Oeste 0 -- -- 37
2019-06-24 00:00:00 23.7 3 Noroeste 5 Noroeste 0 -- -- 33
2019-06-23 23:00:00 24.8 0 Calma 3 Nordeste 0 -- -- 30
2019-06-23 22:00:00 26.6 0 Calma 11 Oeste 0 -- -- 26
2019-06-23 21:00:00 28.7 3 Oeste 12 Oeste 0 -- -- 23
2019-06-23 20:00:00 29.7 6 Sudoeste 17 Sudoeste 0 -- -- 21
2019-06-23 19:00:00 30.5 6 Oeste 19 Oeste 0 -- -- 20
2019-06-23 18:00:00 31.1 7 Sudoeste 19 Sudoeste 0 -- -- 19
2019-06-23 17:00:00 31.6 10 Sudoeste 23 Sudoeste 0 -- -- 19
2019-06-23 16:00:00 32.1 8 Sudoeste 24 Sudeste 0 -- -- 20
2019-06-23 15:00:00 32.1 6 Sur 28 Sudoeste 0 -- -- 21
2019-06-23 14:00:00 30.3 8 Oeste 26 Oeste 0 -- -- 23
2019-06-23 13:00:00 29.2 8 Sudoeste 22 Sudoeste 0 -- -- 22
2019-06-23 12:00:00 27.8 8 Oeste 22 Sudoeste 0 -- -- 23
2019-06-23 11:00:00 25.5 4 Sudoeste 19 Sudoeste 0 -- -- 27
2019-06-23 10:00:00 22.7 0 Calma 5 Sudoeste 0 -- -- 36
2019-06-23 09:00:00 20 0 Calma 5 Este 0 -- -- 45
2019-06-23 08:00:00 16.7 0 Calma 4 Nordeste 0 -- -- 53
2019-06-23 07:00:00 15.2 3 Norte 6 Nordeste 0 -- -- 56
2019-06-23 06:00:00 14.6 0 Calma 6 Sudoeste 0 -- -- 56
2019-06-23 05:00:00 17 4 Norte 7 Noroeste 0 -- -- 50
2019-06-23 04:00:00 16.7 2 Noroeste 6 Norte 0 -- -- 51
2019-06-23 03:00:00 17.3 0 Calma 5 Norte 0 -- -- 48
2019-06-23 02:00:00 18.7 2 Noroeste 5 Norte 0 -- -- 44
2019-06-23 01:00:00 19.8 0 Calma 4 Sudoeste 0 -- -- 42
2019-06-23 00:00:00 21.8 0 Calma 6 Nordeste 0 -- -- 37
2019-06-22 23:00:00 23.8 0 Calma 5 Nordeste 0 -- -- 34
2019-06-22 22:00:00 26.6 3 Noroeste 16 Oeste 0 -- -- 28
2019-06-22 21:00:00 28.8 5 Oeste 17 Noroeste 0 -- -- 25
2019-06-22 20:00:00 29.6 6 Oeste 24 Sudoeste 0 -- -- 23
2019-06-22 19:00:00 30.5 7 Sudoeste 30 Sudoeste 0 -- -- 22
2019-06-22 18:00:00 30.5 10 Sur 28 Oeste 0 -- -- 21
2019-06-22 17:00:00 30.2 7 Sudoeste 24 Sudoeste 0 -- -- 22
2019-06-22 16:00:00 30.3 13 Sur 28 Sur 0 -- -- 22
2019-06-22 15:00:00 29.9 10 Sur 23 Sur 0 -- -- 26
2019-06-22 14:00:00 29.4 9 Sur 30 Sudeste 0 -- -- 27
2019-06-22 13:00:00 27.7 5 Sudeste 19 Sudeste 0 -- -- 34
2019-06-22 12:00:00 26.1 7 Nordeste 20 Nordeste 0 -- -- 40
2019-06-22 11:00:00 24.7 12 Nordeste 29 Este 0 -- -- 47
2019-06-22 10:00:00 22.3 15 Nordeste 29 Este 0 -- -- 51
2019-06-22 09:00:00 20.1 7 Este 19 Este 0 -- -- 56
2019-06-22 08:00:00 18.6 5 Este 14 Este 0 -- -- 57
2019-06-22 07:00:00 18 6 Este 17 Este 0 -- -- 52
2019-06-22 06:00:00 19.1 10 Este 22 Este 0 -- -- 45
2019-06-22 05:00:00 19.8 10 Nordeste 25 Nordeste 0 -- -- 43
2019-06-22 04:00:00 20.1 5 Nordeste 18 Nordeste 0 -- -- 40
2019-06-22 03:00:00 21.5 9 Nordeste 29 Nordeste 0 -- -- 37
2019-06-22 02:00:00 20.9 15 Nordeste 35 Nordeste 0 -- -- 37
2019-06-22 01:00:00 22 3 Sudeste 35 Norte 0 -- -- 33
2019-06-22 00:00:00 23.9 22 Norte 41 Norte 0 -- -- 31
2019-06-21 23:00:00 24.5 15 Norte 36 Noroeste 0 -- -- 29
2019-06-21 22:00:00 24.9 14 Norte 36 Norte 0 -- -- 28
2019-06-21 21:00:00 25.7 15 Norte 33 Norte 0 -- -- 29
2019-06-21 20:00:00 27.6 8 Nordeste 22 Norte 0 -- -- 28
2019-06-21 19:00:00 27.5 10 Norte 21 Norte 0 -- -- 28
2019-06-21 18:00:00 28.7 10 Nordeste 23 Norte 0 -- -- 29
2019-06-21 17:00:00 26.2 10 Norte 25 Norte 0 -- -- 31
2019-06-21 16:00:00 27.8 7 Nordeste 20 Nordeste 0 -- -- 31
2019-06-21 15:00:00 26.2 6 Norte 18 Nordeste 0 -- -- 33
2019-06-21 14:00:00 25.9 2 Noroeste 20 Noroeste 0 -- -- 33
2019-06-21 13:00:00 26.6 2 Noroeste 14 Norte 0 -- -- 32
2019-06-21 12:00:00 25 6 Sudoeste 16 Oeste 0 -- -- 37
2019-06-21 11:00:00 23 0 Calma 15 Sur 0 -- -- 45
2019-06-21 10:00:00 20.9 4 Noroeste 9 Noroeste 0 -- -- 53
2019-06-21 09:00:00 17.7 3 Nordeste 8 Nordeste 0 -- -- 66
2019-06-21 08:00:00 15.2 2 Norte 6 Nordeste 0 -- -- 74
2019-06-21 07:00:00 13.5 0 Calma 6 Este 0 -- -- 71
2019-06-21 06:00:00 14.7 0 Calma 6 Noroeste 0 -- -- 66
2019-06-21 05:00:00 15.1 0 Calma 9 Noroeste 0 -- -- 62
2019-06-21 04:00:00 16.6 0 Calma 9 Noroeste 0 -- -- 57
2019-06-21 03:00:00 17.9 0 Calma 8 Noroeste 0 -- -- 52
2019-06-21 02:00:00 17.9 0 Calma 6 Oeste 0 -- -- 51
2019-06-21 01:00:00 18 0 Calma 10 Noroeste 0 -- -- 48
2019-06-21 00:00:00 19.1 0 Calma 6 Noroeste 0 -- -- 44
2019-06-20 23:00:00 22.3 0 Calma 11 Oeste 0 -- -- 36
2019-06-20 22:00:00 23.8 4 Oeste 25 Sudoeste 0 -- -- 34
2019-06-20 21:00:00 25.2 9 Sudoeste 26 Sudoeste 0 -- -- 32
2019-06-20 20:00:00 25.9 13 Sudoeste 30 Sudoeste 0 -- -- 30
2019-06-20 19:00:00 27.5 11 Sudoeste 32 Sudoeste 0 -- -- 28
2019-06-20 18:00:00 28.1 9 Sudoeste 36 Oeste 0 -- -- 28
2019-06-20 17:00:00 28.4 8 Sudoeste 34 Sudoeste 0 -- -- 29
2019-06-20 16:00:00 27.3 10 Sudoeste 27 Sudoeste 0 -- -- 30
2019-06-20 15:00:00 26.8 9 Sudoeste 26 Sudoeste 0 -- -- 31
2019-06-20 14:00:00 25.9 8 Oeste 26 Sudoeste 0 -- -- 36
2019-06-20 13:00:00 24.3 11 Sudoeste 26 Sudoeste 0 -- -- 39
2019-06-20 12:00:00 24.7 5 Sudoeste 22 Sudoeste 0 -- -- 42
2019-06-20 11:00:00 22.1 4 Sur 15 Sur 0 -- -- 49
2019-06-20 10:00:00 19 0 Calma 4 Sudeste 0 -- -- 61
2019-06-20 09:00:00 16.5 0 Calma 5 Sur 0 -- -- 71
2019-06-20 08:00:00 13.6 0 Calma 3 Este 0 -- -- 77
2019-06-20 07:00:00 13.1 0 Calma 8 Norte 0 -- -- 74
2019-06-20 06:00:00 13.4 0 Calma 5 Noroeste 0 -- -- 72
2019-06-20 05:00:00 14.3 0 Calma 3 Noroeste 0 -- -- 70
2019-06-20 04:00:00 15.6 0 Calma 8 Norte 0 -- -- 65
2019-06-20 03:00:00 16.2 0 Calma 6 Nordeste 0 -- -- 63
2019-06-20 02:00:00 17.1 0 Calma 5 Nordeste 0 -- -- 59
2019-06-20 01:00:00 18 0 Calma 3 Este 0 -- -- 54
2019-06-20 00:00:00 19.7 0 Calma 9 Noroeste 0 -- -- 49
2019-06-19 23:00:00 21.3 4 Noroeste 13 Noroeste 0 -- -- 44
2019-06-19 22:00:00 22.5 5 Oeste 24 Sudoeste 0 -- -- 41
2019-06-19 21:00:00 23.5 6 Oeste 24 Sudoeste 0 -- -- 37
2019-06-19 20:00:00 24.8 8 Sudoeste 30 Sudoeste 0 -- -- 36
2019-06-19 19:00:00 25.7 11 Sudoeste 28 Oeste 0 -- -- 35
2019-06-19 18:00:00 26.3 12 Sudoeste 29 Sudoeste 0 -- -- 34
2019-06-19 17:00:00 25.9 15 Sudoeste 35 Sur 0 -- -- 35
2019-06-19 16:00:00 25.1 9 Sudoeste 27 Sudoeste 0 -- -- 37
2019-06-19 15:00:00 23.5 10 Sudoeste 30 Sudoeste 0 -- -- 44
2019-06-19 14:00:00 22.8 9 Sudoeste 35 Sudoeste 0 -- -- 47
2019-06-19 13:00:00 22.2 10 Sudoeste 32 Sudoeste 0 -- -- 50
2019-06-19 12:00:00 21.4 10 Sudoeste 30 Oeste 0 -- -- 53
2019-06-19 11:00:00 20.4 7 Sudoeste 25 Sudoeste 0 -- -- 60
2019-06-19 10:00:00 18.8 6 Oeste 22 Sudoeste 0 -- -- 69
2019-06-19 09:00:00 17.4 6 Sudoeste 17 Sur 0 -- -- 73
2019-06-19 08:00:00 16.6 5 Oeste 21 Noroeste 0 -- -- 71
2019-06-19 07:00:00 16.7 6 Oeste 18 Oeste 0 -- -- 67
2019-06-19 06:00:00 17.6 6 Oeste 21 Oeste 0 -- -- 61
2019-06-19 05:00:00 18 6 Sudoeste 23 Noroeste 0 -- -- 60
2019-06-19 04:00:00 18.5 6 Oeste 18 Oeste 0 -- -- 61
2019-06-19 03:00:00 19.6 6 Oeste 20 Oeste 0 -- -- 59
2019-06-19 02:00:00 19.9 7 Oeste 19 Oeste 0 -- -- 55
2019-06-19 01:00:00 20.7 4 Oeste 19 Oeste 0 -- -- 49
2019-06-19 00:00:00 20.9 4 Sudoeste 14 Noroeste 0 -- -- 45
2019-06-18 23:00:00 22.2 3 Oeste 17 Oeste 0 -- -- 41
2019-06-18 22:00:00 23.2 5 Oeste 23 Sudoeste 0 -- -- 37
2019-06-18 21:00:00 24.5 8 Sudoeste 38 Sudoeste 0 -- -- 35
2019-06-18 20:00:00 25.2 10 Oeste 36 Sudoeste 0 -- -- 35
2019-06-18 19:00:00 26.1 12 Oeste 42 Oeste 0 -- -- 32
2019-06-18 18:00:00 27.4 13 Sudoeste 38 Sur 0 -- -- 25
2019-06-18 17:00:00 29 8 Sudoeste 34 Sudoeste 0 -- -- 19
2019-06-18 16:00:00 28.1 13 Oeste 31 Sudoeste 0 -- -- 19
2019-06-18 15:00:00 28.3 13 Oeste 36 Sudoeste 0 -- -- 20
2019-06-18 14:00:00 27.2 10 Sudoeste 28 Sudoeste 0 -- -- 22
2019-06-18 13:00:00 25.8 11 Sudoeste 37 Oeste 0 -- -- 24
2019-06-18 12:00:00 24.8 8 Sudoeste 26 Oeste 0 -- -- 30
2019-06-18 11:00:00 22.7 7 Oeste 29 Sudoeste 0 -- -- 36
2019-06-18 10:00:00 21.1 8 Oeste 20 Noroeste 0 -- -- 37
2019-06-18 09:00:00 19.1 6 Sudoeste 12 Sudoeste 0 -- -- 41
2019-06-18 08:00:00 15.2 0 Calma 5 Noroeste 0 -- -- 45
2019-06-18 07:00:00 14 0 Calma 5 Noroeste 0 -- -- 43
2019-06-18 06:00:00 15.1 0 Calma 7 Sur 0 -- -- 39
2019-06-18 05:00:00 15.9 0 Calma 9 Sudoeste 0 -- -- 39
2019-06-18 04:00:00 17.4 0 Calma 4 Norte 0 -- -- 35
2019-06-18 03:00:00 19.6 0 Calma 7 Sudeste 0 -- -- 31
2019-06-18 02:00:00 22.2 4 Norte 8 Nordeste 0 -- -- 28
2019-06-18 01:00:00 22.3 0 Calma 4 Noroeste 0 -- -- 28
2019-06-18 00:00:00 23.3 0 Calma 3 Noroeste 0 -- -- 26
2019-06-17 23:00:00 24.6 0 Calma 4 Noroeste 0 -- -- 23
2019-06-17 22:00:00 27 2 Noroeste 11 Noroeste 0 -- -- 19
2019-06-17 21:00:00 28.1 4 Oeste 14 Sudoeste 0 -- -- 18
2019-06-17 20:00:00 29.4 5 Oeste 19 Sudoeste 0 -- -- 17
2019-06-17 19:00:00 30 9 Sudoeste 28 Sur 0 -- -- 15
2019-06-17 18:00:00 30.9 9 Sur 29 Sudoeste 0 -- -- 16
2019-06-17 17:00:00 30.4 11 Sur 31 Sudoeste 0 -- -- 18
2019-06-17 16:00:00 30.3 7 Sudoeste 32 Sur 0 -- -- 18
2019-06-17 15:00:00 29.8 9 Sur 27 Sudoeste 0 -- -- 19
2019-06-17 14:00:00 29.1 8 Sudoeste 25 Sudoeste 0 -- -- 22
2019-06-17 13:00:00 27.6 4 Oeste 21 Sur 0 -- -- 24
2019-06-17 12:00:00 26.2 6 Oeste 17 Noroeste 0 -- -- 27
2019-06-17 11:00:00 23.5 4 Sudoeste 11 Sudoeste 0 -- -- 31
2019-06-17 10:00:00 21 3 Sudoeste 8 Oeste 0 -- -- 34
2019-06-17 09:00:00 18 0 Calma 4 Sudeste 0 -- -- 41
2019-06-17 08:00:00 13.5 0 Calma 4 Noroeste 0 -- -- 50
2019-06-17 07:00:00 11 0 Calma 4 Noroeste 0 -- -- 48
2019-06-17 06:00:00 12.7 0 Calma 4 Nordeste 0 -- -- 43
2019-06-17 05:00:00 14.5 3 Norte 7 Norte 0 -- -- 39
2019-06-17 04:00:00 13.7 2 Norte 5 Norte 0 -- -- 41
2019-06-17 03:00:00 14.6 0 Calma 5 Noroeste 0 -- -- 37
2019-06-17 02:00:00 15.9 0 Calma 4 Norte 0 -- -- 37
2019-06-17 01:00:00 17.2 0 Calma 5 Noroeste 0 -- -- 36
2019-06-17 00:00:00 18.6 2 Noroeste 7 Noroeste 0 -- -- 32
2019-06-16 23:00:00 21.1 0 Calma 7 Oeste 0 -- -- 26
2019-06-16 22:00:00 24.7 3 Oeste 10 Sudoeste 0 -- -- 20
2019-06-16 21:00:00 26.5 3 Sudoeste 12 Oeste 0 -- -- 18
2019-06-16 20:00:00 27.5 5 Sudoeste 18 Oeste 0 -- -- 18
2019-06-16 19:00:00 27.9 5 Sudoeste 18 Sudoeste 0 -- -- 17
2019-06-16 18:00:00 28.5 7 Oeste 20 Oeste 0 -- -- 17
2019-06-16 17:00:00 29.2 7 Sudoeste 22 Sur 0 -- -- 17
2019-06-16 16:00:00 28.6 4 Sudoeste 19 Sur 0 -- -- 18
2019-06-16 15:00:00 27.6 6 Sur 24 Sudeste 0 -- -- 20
2019-06-16 14:00:00 27 7 Sur 23 Sudeste 0 -- -- 21
2019-06-16 13:00:00 27.3 5 Norte 17 Sudeste 0 -- -- 23
2019-06-16 12:00:00 25.2 6 Sudeste 14 Nordeste 0 -- -- 25
2019-06-16 11:00:00 23.8 8 Nordeste 22 Nordeste 0 -- -- 31
2019-06-16 10:00:00 22 12 Nordeste 23 Norte 0 -- -- 33
2019-06-16 09:00:00 19.7 6 Este 13 Este 0 -- -- 39
2019-06-16 08:00:00 15.1 5 Norte 6 Norte 0 -- -- 47
2019-06-16 07:00:00 13.2 0 Calma 10 Nordeste 0 -- -- 46
2019-06-16 06:00:00 13.6 5 Nordeste 11 Nordeste 0 -- -- 47
2019-06-16 05:00:00 13.1 0 Calma 7 Nordeste 0 -- -- 48
2019-06-16 04:00:00 13.4 2 Norte 9 Norte 0 -- -- 48
2019-06-16 03:00:00 13.4 0 Calma 9 Norte 0 -- -- 48
2019-06-16 02:00:00 15.1 3 Norte 9 Noroeste 0 -- -- 45
2019-06-16 01:00:00 15.7 0 Calma 8 Norte 0 -- -- 43
2019-06-16 00:00:00 16.7 0 Calma 4 Nordeste 0 -- -- 43